Time;durP1;ratioP1;P1;durP2;ratioP2;P2;SDS_P1;SDS_P2;PMS_P1;PMS_P2;Temp;Humidity;BMP_temperature;BMP_pressure;BME280_temperature;BME280_humidity;BME280_pressure;Samples;Min_cycle;Max_cycle;Signal;HPM_P1;HPM_P2
2022/12/27 00:00:35;;;;;;;12.40;4.07;;;;;;;;;;5136503;27;20041;-82
2022/12/27 00:03:03;;;;;;;12.55;3.75;;;;;;;;;;5128796;27;20052;-82
2022/12/27 00:05:31;;;;;;;12.07;3.15;;;;;;;;;;5133775;27;20051;-83
2022/12/27 00:07:58;;;;;;;14.88;4.00;;;;;;;;;;5132147;27;20050;-82
2022/12/27 00:10:25;;;;;;;11.20;3.30;;;;;;;;;;5137838;27;20104;-82
2022/12/27 00:12:53;;;;;;;16.52;3.78;;;;;;;;;;5138030;27;20101;-81
2022/12/27 00:15:20;;;;;;;17.45;4.65;;;;;;;;;;5137892;27;20051;-81
2022/12/27 00:17:47;;;;;;;12.70;3.60;;;;;;;;;;5136748;27;20063;-82
2022/12/27 00:20:14;;;;;;;11.75;3.67;;;;;;;;;;5132679;27;20048;-82
2022/12/27 00:22:41;;;;;;;16.92;3.47;;;;;;;;;;5136989;27;20052;-81
2022/12/27 00:25:09;;;;;;;11.25;3.78;;;;;;;;;;5125885;27;20047;-82
2022/12/27 00:27:36;;;;;;;10.05;3.58;;;;;;;;;;5144115;27;20062;-81
2022/12/27 00:30:04;;;;;;;13.90;4.03;;;;;;;;;;5141439;27;20130;-81
2022/12/27 00:32:33;;;;;;;23.67;4.20;;;;;;;;;;5140726;27;20043;-82
2022/12/27 00:35:00;;;;;;;12.50;3.70;;;;;;;;;;5143905;27;20032;-82
2022/12/27 00:37:27;;;;;;;13.20;3.17;;;;;;;;;;5142617;27;20044;-82
2022/12/27 00:39:54;;;;;;;20.38;3.83;;;;;;;;;;5141646;27;20545;-82
2022/12/27 00:42:21;;;;;;;10.77;2.67;;;;;;;;;;5135623;27;20036;-82
2022/12/27 00:44:49;;;;;;;12.30;3.80;;;;;;;;;;5141336;27;20048;-82
2022/12/27 00:47:16;;;;;;;9.90;3.60;;;;;;;;;;5139918;27;20116;-82
2022/12/27 00:49:43;;;;;;;10.18;3.05;;;;;;;;;;5139435;27;20103;-82
2022/12/27 00:52:10;;;;;;;12.77;3.47;;;;;;;;;;5138748;27;20116;-82
2022/12/27 00:54:37;;;;;;;9.95;2.92;;;;;;;;;;5145490;27;20172;-83
2022/12/27 00:57:05;;;;;;;9.55;2.97;;;;;;;;;;5138871;27;20079;-82
2022/12/27 00:59:33;;;;;;;12.02;3.17;;;;;;;;;;5142863;27;20043;-82
2022/12/27 01:02:00;;;;;;;18.13;3.47;;;;;;;;;;5134247;27;20055;-82
2022/12/27 01:04:28;;;;;;;13.65;3.85;;;;;;;;;;5131639;27;20999;-82
2022/12/27 01:06:55;;;;;;;13.52;3.45;;;;;;;;;;5137247;27;20056;-82
2022/12/27 01:09:24;;;;;;;12.32;3.70;;;;;;;;;;5134096;27;20044;-82
2022/12/27 01:11:51;;;;;;;10.98;3.67;;;;;;;;;;5140144;27;20055;-82
2022/12/27 01:14:18;;;;;;;10.40;3.42;;;;;;;;;;5137207;27;20078;-82
2022/12/27 01:16:46;;;;;;;16.50;3.58;;;;;;;;;;5133675;27;20048;-82
2022/12/27 01:19:13;;;;;;;13.55;3.50;;;;;;;;;;5131587;27;20816;-82
2022/12/27 01:21:40;;;;;;;14.43;3.13;;;;;;;;;;5136383;27;20052;-82
2022/12/27 01:24:07;;;;;;;14.75;3.80;;;;;;;;;;5140559;27;20048;-83
2022/12/27 01:26:35;;;;;;;8.45;3.05;;;;;;;;;;5136560;27;20032;-83
2022/12/27 01:29:07;;;;;;;9.93;3.20;;;;;;;;;;5148337;27;20055;-82
2022/12/27 01:31:35;;;;;;;8.27;3.08;;;;;;;;;;5137958;27;20541;-83
2022/12/27 01:34:08;;;;;;;12.98;3.53;;;;;;;;;;5138910;27;20036;-82
2022/12/27 01:36:35;;;;;;;10.38;3.17;;;;;;;;;;5132933;27;20062;-83
2022/12/27 01:39:02;;;;;;;11.50;3.45;;;;;;;;;;5126607;27;20143;-82
2022/12/27 01:44:39;;;;;;;12.95;3.63;;;;;;;;;;5137964;27;20051;-82
2022/12/27 01:47:08;;;;;;;21.08;3.40;;;;;;;;;;5135494;27;20146;-82
2022/12/27 01:49:41;;;;;;;13.65;3.85;;;;;;;;;;5135447;27;20848;-82
2022/12/27 01:52:09;;;;;;;9.27;3.42;;;;;;;;;;5143096;27;20052;-82
2022/12/27 01:54:36;;;;;;;10.10;2.55;;;;;;;;;;5141084;27;20125;-81
2022/12/27 01:57:04;;;;;;;11.18;2.88;;;;;;;;;;5136327;27;20138;-81
2022/12/27 01:59:34;;;;;;;5.28;2.10;;;;;;;;;;5138476;27;20063;-81
2022/12/27 02:02:05;;;;;;;8.07;1.98;;;;;;;;;;5143431;27;20124;-80
2022/12/27 02:04:33;;;;;;;6.85;2.40;;;;;;;;;;5135644;27;20044;-81
2022/12/27 02:07:01;;;;;;;14.52;2.40;;;;;;;;;;5139651;27;20027;-81
2022/12/27 02:09:42;;;;;;;16.45;3.17;;;;;;;;;;5144545;27;20054;-81
2022/12/27 02:12:10;;;;;;;14.77;3.72;;;;;;;;;;5145849;27;20602;-81
2022/12/27 02:14:40;;;;;;;14.38;4.10;;;;;;;;;;5138220;27;20028;-81
2022/12/27 02:17:10;;;;;;;11.85;3.33;;;;;;;;;;5137291;27;20056;-81
2022/12/27 02:19:42;;;;;;;13.65;3.47;;;;;;;;;;5144764;27;20044;-81
2022/12/27 02:22:27;;;;;;;15.05;3.78;;;;;;;;;;5146257;27;20051;-81
2022/12/27 02:25:16;;;;;;;13.20;3.45;;;;;;;;;;5139380;27;20146;-81
2022/12/27 02:27:56;;;;;;;15.13;3.95;;;;;;;;;;5155239;27;20102;-81
2022/12/27 02:30:23;;;;;;;14.93;4.07;;;;;;;;;;5131929;27;20036;-81
2022/12/27 02:32:50;;;;;;;18.65;3.92;;;;;;;;;;5135409;27;21227;-81
2022/12/27 02:35:20;;;;;;;10.15;3.58;;;;;;;;;;5139994;27;20095;-81
2022/12/27 02:37:52;;;;;;;9.50;3.10;;;;;;;;;;5127841;27;20052;-81
2022/12/27 02:55:07;;;;;;;14.63;3.40;;;;;;;;;;5140975;27;20048;-80
2022/12/27 02:57:53;;;;;;;8.80;3.70;;;;;;;;;;5144523;27;20589;-81
2022/12/27 03:03:32;;;;;;;12.23;3.28;;;;;;;;;;5138528;27;20052;-82
2022/12/27 03:09:00;;;;;;;13.75;3.90;;;;;;;;;;5142098;27;20042;-81
2022/12/27 03:17:11;;;;;;;16.90;3.00;;;;;;;;;;5140937;27;20830;-82
2022/12/27 03:25:28;;;;;;;9.70;2.42;;;;;;;;;;5144997;27;20052;-81
2022/12/27 03:33:31;;;;;;;14.32;3.13;;;;;;;;;;5141980;27;20063;-81
2022/12/27 03:39:16;;;;;;;14.30;3.75;;;;;;;;;;5122896;27;20075;-81
2022/12/27 03:44:33;;;;;;;14.43;2.75;;;;;;;;;;5139199;27;20146;-81
2022/12/27 03:47:22;;;;;;;16.60;3.53;;;;;;;;;;5139584;27;20047;-81
2022/12/27 03:49:52;;;;;;;16.17;3.33;;;;;;;;;;5136788;27;20036;-81
2022/12/27 03:52:46;;;;;;;15.50;3.00;;;;;;;;;;5141683;27;20039;-82
2022/12/27 03:55:14;;;;;;;13.70;3.40;;;;;;;;;;5103613;27;20036;-81
2022/12/27 03:57:41;;;;;;;15.88;3.30;;;;;;;;;;5141452;27;20051;-81
2022/12/27 04:00:09;;;;;;;18.45;3.35;;;;;;;;;;5140405;27;20078;-81
2022/12/27 04:02:39;;;;;;;13.65;3.08;;;;;;;;;;5137887;27;20067;-81
2022/12/27 04:05:07;;;;;;;11.65;2.83;;;;;;;;;;5133576;27;20872;-82
2022/12/27 04:07:37;;;;;;;29.75;3.85;;;;;;;;;;5139780;27;20044;-80
2022/12/27 04:35:03;;;;;;;17.73;3.97;;;;;;;;;;5133703;27;20094;-81
2022/12/27 04:37:30;;;;;;;17.70;2.67;;;;;;;;;;5149096;27;20044;-81
2022/12/27 04:56:34;;;;;;;13.57;3.00;;;;;;;;;;5145919;27;20054;-82
2022/12/27 05:02:04;;;;;;;12.43;2.10;;;;;;;;;;5133760;27;20052;-81
2022/12/27 05:04:36;;;;;;;14.88;3.38;;;;;;;;;;5139606;27;20056;-81
2022/12/27 05:15:25;;;;;;;17.20;2.88;;;;;;;;;;5146512;27;20059;-81
2022/12/27 05:17:56;;;;;;;14.80;2.55;;;;;;;;;;5146744;27;20108;-82
2022/12/27 05:20:23;;;;;;;15.50;2.50;;;;;;;;;;5129885;27;20116;-81
2022/12/27 05:25:41;;;;;;;14.57;3.00;;;;;;;;;;5137094;27;20048;-81
2022/12/27 05:28:09;;;;;;;11.75;2.53;;;;;;;;;;5138347;27;20116;-81
2022/12/27 05:30:37;;;;;;;18.00;2.85;;;;;;;;;;5141982;27;20031;-81
2022/12/27 05:33:04;;;;;;;15.10;2.85;;;;;;;;;;5145063;27;20082;-83
2022/12/27 05:35:33;;;;;;;22.10;2.92;;;;;;;;;;5143448;27;20108;-81
2022/12/27 05:38:00;;;;;;;19.42;3.60;;;;;;;;;;5139044;27;20593;-82
2022/12/27 05:40:27;;;;;;;16.77;3.42;;;;;;;;;;5136572;27;20065;-81
2022/12/27 05:42:57;;;;;;;17.67;2.75;;;;;;;;;;5144159;27;20051;-81
2022/12/27 05:45:24;;;;;;;22.40;3.15;;;;;;;;;;5143676;27;20043;-81
2022/12/27 05:48:42;;;;;;;22.83;3.20;;;;;;;;;;5143575;27;20040;-81
2022/12/27 05:51:23;;;;;;;17.80;3.65;;;;;;;;;;5101181;28;20079;-82
2022/12/27 05:54:12;;;;;;;;;;;;;;;;;;;;;
2022/12/27 05:57:07;;;;;;;24.25;4.20;;;;;;;;;;5068481;28;20068;-82
2022/12/27 05:59:34;;;;;;;21.60;2.90;;;;;;;;;;5099342;28;20041;-82
2022/12/27 06:02:02;;;;;;;16.90;3.58;;;;;;;;;;5097191;28;20103;-81
2022/12/27 06:04:30;;;;;;;21.27;3.78;;;;;;;;;;5101085;28;20140;-81
2022/12/27 06:06:58;;;;;;;28.23;3.33;;;;;;;;;;5095470;28;20108;-81
2022/12/27 06:09:25;;;;;;;13.43;3.20;;;;;;;;;;5102150;28;20032;-81
2022/12/27 06:11:53;;;;;;;12.82;3.58;;;;;;;;;;5098229;28;20052;-80
2022/12/27 06:14:21;;;;;;;19.52;2.97;;;;;;;;;;5099503;28;20066;-81
2022/12/27 06:16:48;;;;;;;11.40;3.17;;;;;;;;;;5101894;28;20069;-80
2022/12/27 06:19:15;;;;;;;20.75;3.55;;;;;;;;;;5096848;28;20190;-80
2022/12/27 06:21:43;;;;;;;16.77;3.03;;;;;;;;;;5099656;28;20056;-80
2022/12/27 06:24:12;;;;;;;7.55;2.70;;;;;;;;;;5096821;28;20102;-80
2022/12/27 06:26:41;;;;;;;15.70;3.72;;;;;;;;;;5098162;28;20064;-81
2022/12/27 06:29:09;;;;;;;15.43;3.13;;;;;;;;;;5122512;27;20044;-79
2022/12/27 06:31:36;;;;;;;27.67;3.95;;;;;;;;;;5141581;27;20047;-79
2022/12/27 06:34:17;;;;;;;13.20;3.30;;;;;;;;;;5134072;27;20040;-80
2022/12/27 06:36:49;;;;;;;22.73;3.35;;;;;;;;;;5135432;27;20083;-83
2022/12/27 06:39:16;;;;;;;17.08;3.67;;;;;;;;;;5138613;27;20071;-81
2022/12/27 06:41:43;;;;;;;14.98;3.25;;;;;;;;;;5142985;27;20044;-80
2022/12/27 06:44:11;;;;;;;17.02;3.50;;;;;;;;;;5143137;27;20046;-80
2022/12/27 06:46:38;;;;;;;14.27;3.55;;;;;;;;;;5139858;27;20048;-80
2022/12/27 06:49:05;;;;;;;13.32;3.83;;;;;;;;;;5131833;27;20043;-81
2022/12/27 06:51:33;;;;;;;15.73;3.35;;;;;;;;;;5136889;27;20592;-80
2022/12/27 06:54:03;;;;;;;19.20;3.92;;;;;;;;;;5135206;27;20052;-79
2022/12/27 06:56:30;;;;;;;19.38;3.55;;;;;;;;;;5135639;27;20074;-80
2022/12/27 06:58:57;;;;;;;17.33;3.95;;;;;;;;;;5141262;27;20038;-80
2022/12/27 07:01:27;;;;;;;15.75;4.00;;;;;;;;;;5142237;27;20066;-81
2022/12/27 07:03:57;;;;;;;29.02;4.53;;;;;;;;;;5137880;27;20051;-80
2022/12/27 07:06:25;;;;;;;21.27;3.97;;;;;;;;;;5145408;27;20140;-81
2022/12/27 07:08:52;;;;;;;18.75;4.43;;;;;;;;;;5141127;27;20067;-80
2022/12/27 07:11:20;;;;;;;16.80;3.80;;;;;;;;;;5141290;27;20044;-80
2022/12/27 07:13:50;;;;;;;12.63;3.70;;;;;;;;;;5136094;27;20036;-80
2022/12/27 07:16:20;;;;;;;15.25;3.30;;;;;;;;;;5141756;27;20071;-81
2022/12/27 07:18:48;;;;;;;19.92;3.83;;;;;;;;;;5142311;27;20058;-81
2022/12/27 07:21:17;;;;;;;24.52;3.50;;;;;;;;;;5137721;27;20048;-80
2022/12/27 07:23:45;;;;;;;24.73;3.85;;;;;;;;;;5140320;27;20051;-81
2022/12/27 07:26:16;;;;;;;15.30;3.55;;;;;;;;;;5143054;27;20044;-81
2022/12/27 07:28:44;;;;;;;18.77;3.60;;;;;;;;;;5141985;27;20573;-81
2022/12/27 07:31:13;;;;;;;13.02;3.17;;;;;;;;;;5140943;27;20512;-81
2022/12/27 07:33:41;;;;;;;15.45;3.50;;;;;;;;;;5139460;27;20050;-81
2022/12/27 07:36:28;;;;;;;15.18;3.05;;;;;;;;;;5141239;27;20055;-80
2022/12/27 07:38:55;;;;;;;15.52;3.42;;;;;;;;;;5133295;27;20615;-80
2022/12/27 07:41:23;;;;;;;15.77;3.55;;;;;;;;;;5139861;27;20052;-81
2022/12/27 07:43:50;;;;;;;15.73;3.85;;;;;;;;;;5131333;27;20048;-80
2022/12/27 07:46:19;;;;;;;18.83;3.13;;;;;;;;;;5142844;27;20048;-82
2022/12/27 07:48:47;;;;;;;26.00;4.30;;;;;;;;;;5133383;27;20039;-81
2022/12/27 07:51:14;;;;;;;12.68;3.00;;;;;;;;;;5139941;27;20032;-83
2022/12/27 07:53:45;;;;;;;21.42;3.30;;;;;;;;;;5131706;27;20048;-83
2022/12/27 07:56:13;;;;;;;9.07;3.15;;;;;;;;;;5138227;27;20054;-82
2022/12/27 07:58:44;;;;;;;20.08;3.67;;;;;;;;;;5142380;27;20055;-82
2022/12/27 08:01:12;;;;;;;15.23;3.92;;;;;;;;;;5142776;27;20060;-81
2022/12/27 08:03:47;;;;;;;24.98;3.28;;;;;;;;;;5134614;27;20125;-81
2022/12/27 08:06:27;;;;;;;13.20;3.58;;;;;;;;;;5140293;27;20071;-82
2022/12/27 08:08:54;;;;;;;13.23;4.07;;;;;;;;;;5140938;27;20037;-82
2022/12/27 08:11:22;;;;;;;13.90;3.63;;;;;;;;;;5142180;27;20083;-81
2022/12/27 08:13:49;;;;;;;20.27;3.88;;;;;;;;;;5144100;27;20036;-82
2022/12/27 08:16:17;;;;;;;23.27;3.78;;;;;;;;;;5143534;27;20044;-82
2022/12/27 08:18:46;;;;;;;16.65;3.92;;;;;;;;;;5146969;27;20048;-82
2022/12/27 08:21:14;;;;;;;20.52;3.97;;;;;;;;;;5140507;27;20238;-82
2022/12/27 08:23:42;;;;;;;13.23;4.45;;;;;;;;;;5147256;27;20040;-82
2022/12/27 08:26:10;;;;;;;24.40;4.22;;;;;;;;;;5144089;27;20043;-82
2022/12/27 08:28:40;;;;;;;17.05;4.80;;;;;;;;;;5136049;27;20051;-82
2022/12/27 08:31:08;;;;;;;21.48;4.60;;;;;;;;;;5139428;27;20054;-82
2022/12/27 08:33:36;;;;;;;16.42;4.57;;;;;;;;;;5134158;27;20054;-82
2022/12/27 08:36:06;;;;;;;21.13;4.97;;;;;;;;;;5143168;27;20043;-81
2022/12/27 08:38:54;;;;;;;13.85;4.75;;;;;;;;;;5135952;27;20050;-82
2022/12/27 08:41:21;;;;;;;22.20;4.72;;;;;;;;;;5146544;27;20036;-82
2022/12/27 08:43:49;;;;;;;17.17;4.50;;;;;;;;;;5138747;27;20048;-82
2022/12/27 08:46:18;;;;;;;14.88;4.47;;;;;;;;;;5138550;27;20032;-82
2022/12/27 08:48:49;;;;;;;18.00;5.63;;;;;;;;;;5135555;27;20040;-82
2022/12/27 08:51:16;;;;;;;20.27;5.68;;;;;;;;;;5145070;27;20478;-82
2022/12/27 08:53:59;;;;;;;29.02;5.88;;;;;;;;;;5145545;27;20043;-82
2022/12/27 08:56:28;;;;;;;22.73;6.15;;;;;;;;;;5139125;27;20151;-82
2022/12/27 08:58:56;;;;;;;17.98;5.22;;;;;;;;;;5141802;27;20050;-81
2022/12/27 09:01:24;;;;;;;11.98;4.85;;;;;;;;;;5133845;27;20063;-82
2022/12/27 09:03:55;;;;;;;26.92;5.75;;;;;;;;;;5158320;27;20066;-82
2022/12/27 09:06:23;;;;;;;16.95;5.55;;;;;;;;;;5143378;27;20048;-82
2022/12/27 09:08:51;;;;;;;22.30;5.43;;;;;;;;;;5138914;27;20899;-82
2022/12/27 09:11:20;;;;;;;20.70;6.45;;;;;;;;;;5144828;27;20063;-81
2022/12/27 09:13:50;;;;;;;26.15;6.80;;;;;;;;;;5136296;27;20048;-81
2022/12/27 09:16:21;;;;;;;23.80;6.45;;;;;;;;;;5140368;27;20124;-82
2022/12/27 09:18:49;;;;;;;19.30;6.20;;;;;;;;;;5143982;27;20195;-81
2022/12/27 09:21:17;;;;;;;26.13;6.60;;;;;;;;;;5148486;27;20036;-83
2022/12/27 09:23:47;;;;;;;24.13;5.68;;;;;;;;;;5149109;27;20071;-82
2022/12/27 09:26:25;;;;;;;18.90;6.22;;;;;;;;;;5148616;27;20107;-82
2022/12/27 09:28:52;;;;;;;13.85;5.32;;;;;;;;;;5135010;27;20035;-82
2022/12/27 09:31:20;;;;;;;22.02;6.13;;;;;;;;;;5141032;27;20793;-82
2022/12/27 09:33:48;;;;;;;18.75;5.53;;;;;;;;;;5149784;27;20044;-81
2022/12/27 09:36:19;;;;;;;23.17;5.85;;;;;;;;;;5136835;27;20060;-82
2022/12/27 09:38:47;;;;;;;18.88;5.10;;;;;;;;;;5147832;27;20044;-82
2022/12/27 09:41:14;;;;;;;12.25;5.00;;;;;;;;;;5144573;27;20040;-82
2022/12/27 09:44:16;;;;;;;20.40;5.30;;;;;;;;;;5140669;27;20046;-82
2022/12/27 09:46:47;;;;;;;13.43;5.60;;;;;;;;;;5147619;27;20055;-82
2022/12/27 09:49:17;;;;;;;22.13;5.78;;;;;;;;;;5145059;27;20039;-82
2022/12/27 09:51:50;;;;;;;17.85;5.55;;;;;;;;;;5145686;27;20051;-82
2022/12/27 09:54:23;;;;;;;17.98;5.72;;;;;;;;;;5139414;27;20043;-81
2022/12/27 09:56:54;;;;;;;18.60;6.18;;;;;;;;;;5144356;27;20043;-82
2022/12/27 09:59:44;;;;;;;14.55;4.63;;;;;;;;;;5144536;27;20042;-82
2022/12/27 10:02:32;;;;;;;11.30;4.97;;;;;;;;;;5142208;27;20091;-82
2022/12/27 10:05:00;;;;;;;17.17;5.35;;;;;;;;;;5137233;27;20052;-82
2022/12/27 10:07:46;;;;;;;14.57;5.35;;;;;;;;;;5146702;27;20462;-82
2022/12/27 10:10:16;;;;;;;19.02;4.60;;;;;;;;;;5145417;27;20133;-82
2022/12/27 10:12:52;;;;;;;16.98;5.22;;;;;;;;;;5136963;27;20062;-82
2022/12/27 10:15:28;;;;;;;20.05;5.28;;;;;;;;;;5140059;27;20051;-82
2022/12/27 10:18:04;;;;;;;14.80;5.03;;;;;;;;;;5142491;27;20051;-82
2022/12/27 10:20:35;;;;;;;12.25;5.38;;;;;;;;;;5133689;27;20097;-82
2022/12/27 10:23:04;;;;;;;14.00;6.10;;;;;;;;;;5136038;27;20027;-82
2022/12/27 10:25:33;;;;;;;15.25;6.45;;;;;;;;;;5141668;27;20134;-82
2022/12/27 10:28:10;;;;;;;19.13;6.13;;;;;;;;;;5133799;27;20099;-82
2022/12/27 10:30:39;;;;;;;17.17;5.28;;;;;;;;;;5135108;27;20048;-82
2022/12/27 10:33:13;;;;;;;12.13;5.32;;;;;;;;;;5135500;27;20047;-82
2022/12/27 10:35:44;;;;;;;14.60;4.63;;;;;;;;;;5143880;27;20051;-82
2022/12/27 10:38:11;;;;;;;13.00;4.63;;;;;;;;;;5139243;27;20044;-82
2022/12/27 10:40:57;;;;;;;10.68;4.00;;;;;;;;;;5143790;27;20052;-82
2022/12/27 10:43:27;;;;;;;12.60;4.28;;;;;;;;;;5144041;27;20055;-82
2022/12/27 10:45:54;;;;;;;13.52;4.68;;;;;;;;;;5143756;27;20118;-82
2022/12/27 10:48:23;;;;;;;17.27;5.05;;;;;;;;;;5142319;27;20067;-81
2022/12/27 10:50:58;;;;;;;16.35;5.10;;;;;;;;;;5143632;27;20107;-83
2022/12/27 10:53:42;;;;;;;;;;;;;;;;;;;;;
2022/12/27 10:56:12;;;;;;;21.60;5.22;;;;;;;;;;5141994;27;20052;-79
2022/12/27 10:58:39;;;;;;;12.90;4.05;;;;;;;;;;5138427;27;20040;-79
2022/12/27 11:01:13;;;;;;;14.93;4.68;;;;;;;;;;5144495;27;20047;-80
2022/12/27 11:03:41;;;;;;;11.23;4.78;;;;;;;;;;5144314;27;20083;-80
2022/12/27 11:06:18;;;;;;;11.68;4.63;;;;;;;;;;5136359;27;20046;-80
2022/12/27 11:08:48;;;;;;;11.15;4.07;;;;;;;;;;5136847;27;20040;-79
2022/12/27 11:11:17;;;;;;;16.98;4.95;;;;;;;;;;5139946;27;20047;-80
2022/12/27 11:13:45;;;;;;;12.98;4.97;;;;;;;;;;5144146;27;20058;-81
2022/12/27 11:16:17;;;;;;;12.07;5.05;;;;;;;;;;5135642;27;20101;-80
2022/12/27 11:18:49;;;;;;;16.83;5.68;;;;;;;;;;5155848;27;20081;-81
2022/12/27 11:21:18;;;;;;;12.73;4.45;;;;;;;;;;5139130;27;21258;-80
2022/12/27 11:24:01;;;;;;;11.35;4.68;;;;;;;;;;5140892;27;20079;-80
2022/12/27 11:26:50;;;;;;;13.00;4.65;;;;;;;;;;5152445;27;20066;-81
2022/12/27 11:29:22;;;;;;;14.07;4.60;;;;;;;;;;5156032;27;20059;-81
2022/12/27 11:31:50;;;;;;;13.40;5.35;;;;;;;;;;5141156;27;20047;-82
2022/12/27 11:34:18;;;;;;;12.02;4.70;;;;;;;;;;5136067;27;20135;-82
2022/12/27 11:36:49;;;;;;;12.95;5.07;;;;;;;;;;5141354;27;20048;-81
2022/12/27 11:39:35;;;;;;;12.30;5.18;;;;;;;;;;5141495;27;20542;-81
2022/12/27 11:42:07;;;;;;;11.45;4.80;;;;;;;;;;5137645;27;20119;-80
2022/12/27 11:44:37;;;;;;;15.07;4.85;;;;;;;;;;5138257;27;20048;-81
2022/12/27 11:47:10;;;;;;;17.50;5.15;;;;;;;;;;5141121;27;20065;-80
2022/12/27 11:49:42;;;;;;;14.07;4.78;;;;;;;;;;5138857;27;20077;-80
2022/12/27 11:52:28;;;;;;;15.60;4.78;;;;;;;;;;5140610;27;20051;-82
2022/12/27 11:55:16;;;;;;;10.70;4.65;;;;;;;;;;5136192;27;20050;-79
2022/12/27 11:58:03;;;;;;;11.13;4.30;;;;;;;;;;5112145;27;20168;-81
2022/12/27 12:00:43;;;;;;;9.82;4.53;;;;;;;;;;5133065;27;20052;-81
2022/12/27 12:03:30;;;;;;;12.82;4.95;;;;;;;;;;5131706;27;20078;-79
2022/12/27 12:06:07;;;;;;;14.75;5.25;;;;;;;;;;5130344;27;20854;-78
2022/12/27 12:08:46;;;;;;;10.45;4.57;;;;;;;;;;5137566;27;20048;-80
2022/12/27 12:11:29;;;;;;;14.65;4.53;;;;;;;;;;5157156;27;20079;-80
2022/12/27 12:13:57;;;;;;;;;;;;;;;;;;5135259;27;20048;-80
2022/12/27 12:16:43;;;;;;;14.32;5.18;;;;;;;;;;5134728;27;44564;-80
2022/12/27 12:19:19;;;;;;;9.60;4.15;;;;;;;;;;5125000;27;20052;-80
2022/12/27 12:22:07;;;;;;;11.35;4.15;;;;;;;;;;5131709;27;20047;-79
2022/12/27 12:24:52;;;;;;;10.18;3.40;;;;;;;;;;5132506;27;20040;-80
2022/12/27 12:27:38;;;;;;;15.27;4.38;;;;;;;;;;5134796;27;20052;-80
2022/12/27 12:30:14;;;;;;;11.57;4.07;;;;;;;;;;5134370;27;20078;-81
2022/12/27 12:32:56;;;;;;;12.75;4.30;;;;;;;;;;5132308;27;20079;-80
2022/12/27 12:35:50;;;;;;;10.25;3.67;;;;;;;;;;5126227;27;20059;-81
2022/12/27 12:38:17;;;;;;;14.27;3.50;;;;;;;;;;5138801;27;20055;-81
2022/12/27 12:41:03;;;;;;;9.27;3.28;;;;;;;;;;5144367;27;20052;-80
2022/12/27 12:43:49;;;;;;;9.10;3.70;;;;;;;;;;5145711;27;20055;-81
2022/12/27 12:46:24;;;;;;;8.98;3.30;;;;;;;;;;5139407;27;20586;-80
2022/12/27 12:48:56;;;;;;;7.38;3.38;;;;;;;;;;5139219;27;20040;-80
2022/12/27 12:51:42;;;;;;;12.80;4.05;;;;;;;;;;5142370;27;20047;-81
2022/12/27 12:54:12;;;;;;;7.45;3.22;;;;;;;;;;5144986;27;20069;-81
2022/12/27 12:56:58;;;;;;;17.70;4.38;;;;;;;;;;5144751;27;20051;-81
2022/12/27 12:59:48;;;;;;;10.77;3.22;;;;;;;;;;5140856;27;20051;-81
2022/12/27 13:02:15;;;;;;;7.90;3.60;;;;;;;;;;5099310;28;20691;-82
2022/12/27 13:04:55;;;;;;;9.77;3.75;;;;;;;;;;5100579;28;20045;-81
2022/12/27 13:07:41;;;;;;;13.07;3.15;;;;;;;;;;5102134;28;20047;-81
2022/12/27 13:10:29;;;;;;;12.13;3.22;;;;;;;;;;5100846;28;20025;-81
2022/12/27 13:13:16;;;;;;;9.73;3.38;;;;;;;;;;5103485;28;20041;-81
2022/12/27 13:16:02;;;;;;;8.52;3.35;;;;;;;;;;5084347;28;20056;-81
2022/12/27 13:18:49;;;;;;;10.77;3.28;;;;;;;;;;5088509;28;20041;-81
2022/12/27 13:21:29;;;;;;;7.65;3.33;;;;;;;;;;5081321;28;20219;-81
2022/12/27 13:24:10;;;;;;;10.18;3.58;;;;;;;;;;5098918;28;20048;-81
2022/12/27 13:26:54;;;;;;;12.20;3.00;;;;;;;;;;5097281;28;20049;-81
2022/12/27 13:29:21;;;;;;;8.50;3.20;;;;;;;;;;5096166;28;20139;-82
2022/12/27 13:31:51;;;;;;;12.38;3.72;;;;;;;;;;5100622;28;20039;-80
2022/12/27 13:34:27;;;;;;;12.13;3.70;;;;;;;;;;5099479;28;20068;-80
2022/12/27 13:37:09;;;;;;;9.48;3.47;;;;;;;;;;5095693;28;20052;-81
2022/12/27 13:39:36;;;;;;;10.13;3.60;;;;;;;;;;5120271;27;20048;-81
2022/12/27 13:42:35;;;;;;;8.65;3.83;;;;;;;;;;5141096;27;20040;-81
2022/12/27 13:45:10;;;;;;;10.82;3.03;;;;;;;;;;5136376;27;20040;-81
2022/12/27 13:47:50;;;;;;;6.82;2.90;;;;;;;;;;5138217;27;20058;-81
2022/12/27 13:50:27;;;;;;;10.93;3.05;;;;;;;;;;5139481;27;20043;-81
2022/12/27 13:53:00;;;;;;;11.75;3.00;;;;;;;;;;5138616;27;20047;-81
2022/12/27 13:55:36;;;;;;;7.30;3.13;;;;;;;;;;5138289;27;20099;-82
2022/12/27 13:58:09;;;;;;;9.38;3.17;;;;;;;;;;5136267;27;20048;-82
2022/12/27 14:00:46;;;;;;;10.35;3.47;;;;;;;;;;5135793;27;20497;-82
2022/12/27 14:03:32;;;;;;;12.65;3.55;;;;;;;;;;5138242;27;20035;-82
2022/12/27 14:06:15;;;;;;;11.30;3.30;;;;;;;;;;5133395;27;20044;-81
2022/12/27 14:08:47;;;;;;;9.90;3.67;;;;;;;;;;5138375;27;20117;-82
2022/12/27 14:11:27;;;;;;;9.90;3.25;;;;;;;;;;5141791;27;20099;-81
2022/12/27 14:13:56;;;;;;;9.23;3.47;;;;;;;;;;5135716;27;20050;-81
2022/12/27 14:16:31;;;;;;;10.50;3.28;;;;;;;;;;5141952;27;20138;-81
2022/12/27 14:19:13;;;;;;;11.48;3.40;;;;;;;;;;5134707;27;20051;-82
2022/12/27 14:22:01;;;;;;;7.95;4.32;;;;;;;;;;5130754;27;20052;-82
2022/12/27 14:24:54;;;;;;;9.90;3.63;;;;;;;;;;5139339;27;20082;-81
2022/12/27 14:27:41;;;;;;;9.98;3.47;;;;;;;;;;5159126;27;20116;-81
2022/12/27 14:30:27;;;;;;;10.77;3.38;;;;;;;;;;5145912;27;20031;-81
2022/12/27 14:33:04;;;;;;;9.70;3.78;;;;;;;;;;5144835;27;20052;-82
2022/12/27 14:35:52;;;;;;;14.02;3.65;;;;;;;;;;5137384;27;20105;-81
2022/12/27 14:38:34;;;;;;;12.15;3.80;;;;;;;;;;5148441;27;20064;-81
2022/12/27 14:41:14;;;;;;;9.73;3.60;;;;;;;;;;5133916;27;20143;-82
2022/12/27 14:44:09;;;;;;;13.95;3.60;;;;;;;;;;5145604;27;20047;-82
2022/12/27 14:46:48;;;;;;;12.13;3.70;;;;;;;;;;5098005;27;20043;-82
2022/12/27 14:49:20;;;;;;;11.52;3.97;;;;;;;;;;5134972;27;20052;-82
2022/12/27 14:52:03;;;;;;;14.65;6.03;;;;;;;;;;5137731;27;20047;-82
2022/12/27 14:54:38;;;;;;;11.88;3.90;;;;;;;;;;5137852;27;20039;-82
2022/12/27 14:57:23;;;;;;;10.52;3.33;;;;;;;;;;5137641;27;20062;-82
2022/12/27 15:00:19;;;;;;;12.40;3.47;;;;;;;;;;5131030;27;20889;-82
2022/12/27 15:03:05;;;;;;;13.45;3.50;;;;;;;;;;5132770;27;20051;-82
2022/12/27 15:05:54;;;;;;;10.82;2.85;;;;;;;;;;5140457;27;20056;-82
2022/12/27 15:08:37;;;;;;;10.43;3.78;;;;;;;;;;5133504;27;20078;-82
2022/12/27 15:11:24;;;;;;;11.65;4.25;;;;;;;;;;5134830;27;20054;-82
2022/12/27 15:13:57;;;;;;;9.43;2.95;;;;;;;;;;5135254;27;20066;-82
2022/12/27 15:16:33;;;;;;;9.07;3.33;;;;;;;;;;5139000;27;20055;-82
2022/12/27 15:19:10;;;;;;;9.75;3.28;;;;;;;;;;5150465;27;20066;-82
2022/12/27 15:21:43;;;;;;;17.20;4.25;;;;;;;;;;5136503;27;20051;-81
2022/12/27 15:24:13;;;;;;;8.73;3.42;;;;;;;;;;5136339;27;20075;-82
2022/12/27 15:26:59;;;;;;;8.68;3.20;;;;;;;;;;5132254;27;20047;-82
2022/12/27 15:29:41;;;;;;;13.27;3.15;;;;;;;;;;5151443;27;20047;-82
2022/12/27 15:32:27;;;;;;;6.40;3.08;;;;;;;;;;5135323;27;20062;-83
2022/12/27 15:35:15;;;;;;;12.65;3.67;;;;;;;;;;5141484;27;20097;-82
2022/12/27 15:38:21;;;;;;;8.85;3.30;;;;;;;;;;5138991;27;20698;-82
2022/12/27 15:41:06;;;;;;;10.68;3.58;;;;;;;;;;5097717;28;20160;-82
2022/12/27 15:43:35;;;;;;;7.63;3.25;;;;;;;;;;5094270;28;20050;-82
2022/12/27 15:46:19;;;;;;;16.77;3.67;;;;;;;;;;5094811;28;20045;-82
2022/12/27 15:48:55;;;;;;;12.98;3.80;;;;;;;;;;5091454;28;20055;-82
2022/12/27 15:51:35;;;;;;;10.27;3.40;;;;;;;;;;5093525;28;20139;-82
2022/12/27 15:54:22;;;;;;;9.93;3.67;;;;;;;;;;5095508;28;20057;-83
2022/12/27 15:56:52;;;;;;;10.60;3.38;;;;;;;;;;5093109;28;20052;-82
2022/12/27 15:59:31;;;;;;;14.23;4.40;;;;;;;;;;5083861;28;20044;-82
2022/12/27 16:02:14;;;;;;;7.30;3.55;;;;;;;;;;5096453;28;20045;-82
2022/12/27 16:04:46;;;;;;;11.63;3.38;;;;;;;;;;5098119;28;20054;-82
2022/12/27 16:07:32;;;;;;;16.17;3.80;;;;;;;;;;5071087;28;20132;-82
2022/12/27 16:09:59;;;;;;;13.68;3.67;;;;;;;;;;5090260;28;20117;-83
2022/12/27 16:12:39;;;;;;;12.80;3.83;;;;;;;;;;5121597;27;20043;-82
2022/12/27 16:15:27;;;;;;;13.13;3.65;;;;;;;;;;5137610;27;20066;-82
2022/12/27 16:17:55;;;;;;;6.50;3.28;;;;;;;;;;5136891;27;20070;-82
2022/12/27 16:20:22;;;;;;;8.98;3.53;;;;;;;;;;5142040;27;20052;-82
2022/12/27 16:22:49;;;;;;;13.80;3.72;;;;;;;;;;5137281;27;20028;-82
2022/12/27 16:25:36;;;;;;;8.80;3.40;;;;;;;;;;5134824;27;20044;-83
2022/12/27 16:28:03;;;;;;;9.25;3.38;;;;;;;;;;5139055;27;20144;-82
2022/12/27 16:30:37;;;;;;;10.93;3.70;;;;;;;;;;5134918;27;20044;-82
2022/12/27 16:33:04;;;;;;;10.55;4.40;;;;;;;;;;5142893;27;20101;-82
2022/12/27 16:35:54;;;;;;;10.30;2.75;;;;;;;;;;5144228;27;21002;-82
2022/12/27 16:39:11;;;;;;;11.18;3.47;;;;;;;;;;5140620;27;20050;-82
2022/12/27 16:42:03;;;;;;;18.00;3.88;;;;;;;;;;5122981;27;20060;-82
2022/12/27 16:44:53;;;;;;;10.20;3.47;;;;;;;;;;5134989;27;20048;-82
2022/12/27 16:47:45;;;;;;;17.48;3.47;;;;;;;;;;5128480;27;20098;-82
2022/12/27 16:50:19;;;;;;;7.50;3.00;;;;;;;;;;5137857;27;20118;-83
2022/12/27 16:53:07;;;;;;;11.98;2.90;;;;;;;;;;5137504;27;20090;-82
2022/12/27 16:55:50;;;;;;;10.18;3.53;;;;;;;;;;5147850;27;20047;-82